Time;durP1;ratioP1;P1;durP2;ratioP2;P2;SDS_P1;SDS_P2;PMS_P1;PMS_P2;Temp;Humidity;BMP_temperature;BMP_pressure;BME280_temperature;BME280_humidity;BME280_pressure;Samples;Min_cycle;Max_cycle;Signal;HPM_P1;HPM_P2
2023/12/17 00:00:25;;;;;;;36.70;18.90;;;9.20;91.10;;;;;;5111633;28;20645;-53
2023/12/17 00:02:51;;;;;;;36.03;19.13;;;9.20;85.20;;;;;;5110926;28;20181;-53
2023/12/17 00:05:16;;;;;;;37.30;18.73;;;9.20;75.00;;;;;;5111397;28;20271;-53
2023/12/17 00:07:42;;;;;;;35.33;18.27;;;9.20;71.30;;;;;;5111293;28;20316;-53
2023/12/17 00:10:08;;;;;;;36.30;17.40;;;9.20;72.40;;;;;;5111698;28;20176;-53
2023/12/17 00:12:34;;;;;;;36.63;17.00;;;9.20;63.00;;;;;;5111094;28;20726;-53
2023/12/17 00:15:01;;;;;;;36.50;18.40;;;9.20;42.50;;;;;;5110853;28;20535;-53
2023/12/17 00:17:27;;;;;;;34.90;18.37;;;9.30;19.70;;;;;;5110991;28;20498;-53
2023/12/17 00:19:52;;;;;;;31.87;17.57;;;9.30;6.70;;;;;;5111294;28;20177;-53
2023/12/17 00:22:18;;;;;;;29.57;16.10;;;9.30;1.00;;;;;;5113704;28;20229;-53
2023/12/17 00:24:43;;;;;;;32.27;16.50;;;9.30;1.00;;;;;;5114910;28;20189;-53
2023/12/17 00:27:09;;;;;;;30.30;16.63;;;9.30;1.00;;;;;;5115380;28;20187;-53
2023/12/17 00:29:35;;;;;;;32.10;16.30;;;9.30;1.00;;;;;;5115066;28;20184;-53
2023/12/17 00:32:00;;;;;;;26.80;14.27;;;9.40;1.00;;;;;;5114320;28;20414;-53
2023/12/17 00:34:26;;;;;;;27.20;15.97;;;9.40;1.00;;;;;;5115431;28;20204;-53
2023/12/17 00:36:51;;;;;;;30.13;16.00;;;9.40;1.00;;;;;;5114938;28;20192;-53
2023/12/17 00:39:17;;;;;;;28.10;15.97;;;9.40;1.00;;;;;;5114931;28;20176;-53
2023/12/17 00:41:42;;;;;;;27.60;14.97;;;9.40;1.00;;;;;;5115044;28;20272;-53
2023/12/17 00:44:08;;;;;;;26.07;14.40;;;9.40;1.00;;;;;;5114772;28;20208;-53
2023/12/17 00:46:34;;;;;;;24.03;13.63;;;9.50;1.00;;;;;;5113994;28;20183;-53
2023/12/17 00:48:59;;;;;;;23.30;13.60;;;9.50;1.00;;;;;;5114599;28;20185;-53
2023/12/17 00:51:25;;;;;;;22.70;13.80;;;9.40;99.90;;;;;;5114977;28;20179;-52
2023/12/17 00:53:51;;;;;;;24.13;13.60;;;9.40;1.00;;;;;;5114583;28;20211;-53
2023/12/17 00:56:17;;;;;;;22.00;13.03;;;9.50;99.90;;;;;;5114398;28;20919;-52
2023/12/17 00:58:43;;;;;;;23.80;13.17;;;9.40;99.90;;;;;;5114198;28;20192;-52
2023/12/17 01:01:08;;;;;;;23.10;13.50;;;9.50;99.90;;;;;;5114767;28;20630;-52
2023/12/17 01:03:34;;;;;;;23.40;13.23;;;9.50;99.90;;;;;;5114868;28;20181;-52
2023/12/17 01:05:59;;;;;;;29.13;12.73;;;9.50;99.90;;;;;;5113855;28;20243;-53
2023/12/17 01:08:25;;;;;;;21.47;13.13;;;9.50;99.90;;;;;;5113458;28;20169;-52
2023/12/17 01:10:50;;;;;;;19.00;12.07;;;9.50;99.90;;;;;;5114586;28;20212;-52
2023/12/17 01:13:16;;;;;;;18.00;11.83;;;9.50;99.90;;;;;;5114309;28;20665;-52
2023/12/17 01:15:41;;;;;;;19.23;12.67;;;9.50;99.90;;;;;;5114101;28;20188;-52
2023/12/17 01:18:07;;;;;;;21.30;11.80;;;9.50;99.90;;;;;;5113716;28;20190;-52
2023/12/17 01:20:32;;;;;;;22.63;11.67;;;9.60;99.90;;;;;;5114253;28;20196;-53
2023/12/17 01:22:58;;;;;;;23.13;12.20;;;9.60;1.00;;;;;;5113399;28;20180;-52
2023/12/17 01:25:23;;;;;;;18.37;11.60;;;9.60;1.00;;;;;;5114520;28;20181;-53
2023/12/17 01:27:49;;;;;;;25.97;11.10;;;9.60;1.00;;;;;;5114094;28;20263;-53
2023/12/17 01:30:15;;;;;;;25.60;11.97;;;9.50;1.00;;;;;;5113485;28;20230;-53
2023/12/17 01:32:40;;;;;;;20.27;11.60;;;9.50;96.70;;;;;;5113351;28;20209;-53
2023/12/17 01:35:08;;;;;;;19.70;10.90;;;9.50;10.90;;;;;;5112808;28;20176;-53
2023/12/17 01:37:33;;;;;;;21.57;11.90;;;9.50;6.10;;;;;;5113492;28;20187;-53
2023/12/17 01:39:59;;;;;;;17.90;11.20;;;9.50;29.90;;;;;;5113980;28;20418;-53
2023/12/17 01:42:24;;;;;;;23.10;10.57;;;9.40;99.90;;;;;;5113650;28;20184;-53
2023/12/17 01:44:50;;;;;;;19.80;11.60;;;9.40;99.90;;;;;;5113773;28;20177;-53
2023/12/17 01:47:16;;;;;;;17.90;10.93;;;9.50;58.50;;;;;;5113553;28;20532;-53
2023/12/17 01:49:41;;;;;;;17.43;11.27;;;9.50;12.80;;;;;;5113764;28;20181;-54
2023/12/17 01:52:07;;;;;;;18.40;11.10;;;9.60;22.20;;;;;;5113756;28;20173;-53
2023/12/17 01:54:34;;;;;;;18.00;11.37;;;9.60;1.00;;;;;;5113024;28;20217;-53
2023/12/17 01:57:00;;;;;;;20.53;11.90;;;9.60;1.00;;;;;;5114000;28;20414;-53
2023/12/17 01:59:27;;;;;;;19.90;11.87;;;9.60;1.00;;;;;;5112845;28;20419;-53
2023/12/17 02:01:53;;;;;;;16.80;10.70;;;9.60;1.00;;;;;;5112999;28;20209;-53
2023/12/17 02:04:20;;;;;;;17.20;10.70;;;9.60;1.00;;;;;;5113512;28;20492;-53
2023/12/17 02:06:46;;;;;;;16.73;10.60;;;9.60;1.00;;;;;;5112245;28;20328;-53
2023/12/17 02:09:12;;;;;;;19.63;12.07;;;9.60;1.00;;;;;;5112851;28;20441;-53
2023/12/17 02:11:37;;;;;;;15.00;10.13;;;9.60;1.00;;;;;;5113391;28;20184;-53
2023/12/17 02:14:03;;;;;;;19.57;11.00;;;9.50;1.00;;;;;;5112151;28;20210;-53
2023/12/17 02:16:28;;;;;;;16.40;10.07;;;9.50;1.00;;;;;;5112477;28;20173;-53
2023/12/17 02:18:57;;;;;;;16.90;10.80;;;9.50;1.00;;;;;;5113099;28;20251;-53
2023/12/17 02:21:23;;;;;;;21.57;10.50;;;9.60;99.90;;;;;;5112969;28;20204;-53
2023/12/17 02:23:49;;;;;;;17.13;10.70;;;9.60;1.00;;;;;;5113184;28;20958;-53
2023/12/17 02:26:16;;;;;;;15.47;9.77;;;9.60;1.00;;;;;;5112858;28;20658;-53
2023/12/17 02:28:41;;;;;;;17.63;10.30;;;9.50;1.00;;;;;;5112305;28;20638;-53
2023/12/17 02:31:07;;;;;;;22.60;10.10;;;9.50;13.90;;;;;;5113089;28;20502;-53
2023/12/17 02:33:32;;;;;;;14.33;9.30;;;9.60;1.00;;;;;;5112521;28;20665;-53
2023/12/17 02:35:58;;;;;;;17.87;9.50;;;9.60;1.00;;;;;;5112512;28;20184;-53
2023/12/17 02:38:23;;;;;;;17.93;10.00;;;9.60;99.90;;;;;;5112232;28;20204;-53
2023/12/17 02:40:49;;;;;;;18.23;9.60;;;9.60;99.90;;;;;;5112144;28;20240;-53
2023/12/17 02:43:15;;;;;;;16.13;9.07;;;9.60;99.90;;;;;;5112925;28;20184;-53
2023/12/17 02:45:40;;;;;;;16.13;9.80;;;9.70;99.90;;;;;;5112031;28;20215;-53
2023/12/17 02:48:06;;;;;;;22.40;10.00;;;9.60;99.90;;;;;;5112599;28;20259;-53
2023/12/17 02:50:32;;;;;;;13.07;9.60;;;9.70;99.90;;;;;;5093526;28;20226;-53
2023/12/17 02:52:57;;;;;;;15.53;9.63;;;9.60;99.90;;;;;;5112817;28;20207;-53
2023/12/17 02:55:23;;;;;;;16.63;8.90;;;9.60;99.90;;;;;;5112041;28;20761;-53
2023/12/17 02:57:48;;;;;;;18.03;10.73;;;9.60;99.90;;;;;;5111976;28;20268;-53
2023/12/17 03:00:14;;;;;;;12.97;9.20;;;9.60;99.90;;;;;;5112426;28;20511;-53
2023/12/17 03:02:40;;;;;;;22.60;8.90;;;9.60;99.90;;;;;;5111525;28;20254;-53
2023/12/17 03:05:06;;;;;;;16.23;9.10;;;9.60;99.90;;;;;;5112294;28;20180;-53
2023/12/17 03:07:31;;;;;;;12.43;9.03;;;9.60;99.90;;;;;;5111659;28;20726;-53
2023/12/17 03:09:57;;;;;;;19.07;9.33;;;9.60;99.90;;;;;;5112527;28;20217;-53
2023/12/17 03:12:22;;;;;;;12.27;8.57;;;9.70;99.90;;;;;;5111297;28;20193;-53
2023/12/17 03:14:48;;;;;;;15.40;8.30;;;9.60;99.90;;;;;;5112472;28;20187;-53
2023/12/17 03:17:13;;;;;;;18.77;9.37;;;9.60;99.90;;;;;;5112106;28;20221;-53
2023/12/17 03:19:39;;;;;;;13.37;8.97;;;9.60;2.70;;;;;;5111620;28;20189;-53
2023/12/17 03:22:04;;;;;;;11.83;8.70;;;9.70;30.00;;;;;;5111890;28;20187;-53
2023/12/17 03:24:30;;;;;;;13.23;8.43;;;9.60;99.90;;;;;;5111755;28;20176;-53
2023/12/17 03:26:55;;;;;;;15.30;8.37;;;9.60;6.40;;;;;;5112004;28;20173;-53
2023/12/17 03:29:21;;;;;;;20.10;9.40;;;9.60;1.00;;;;;;5111571;28;20258;-53
2023/12/17 03:31:46;;;;;;;14.73;8.33;;;9.70;1.00;;;;;;5112338;28;20207;-53
2023/12/17 03:34:12;;;;;;;19.33;7.77;;;9.70;1.00;;;;;;5111460;28;20205;-53
2023/12/17 03:36:38;;;;;;;14.03;8.37;;;9.70;1.00;;;;;;5112530;28;20249;-53
2023/12/17 03:39:04;;;;;;;10.93;7.83;;;9.70;99.90;;;;;;5111179;28;20176;-53
2023/12/17 03:41:29;;;;;;;12.63;7.93;;;9.70;1.00;;;;;;5111247;28;20664;-53
2023/12/17 03:43:56;;;;;;;16.33;8.47;;;9.70;99.90;;;;;;5111761;28;20419;-53
2023/12/17 03:46:24;;;;;;;12.37;7.70;;;9.70;99.90;;;;;;5112074;28;20739;-53
2023/12/17 03:48:49;;;;;;;12.73;7.27;;;9.70;1.00;;;;;;5112330;28;20415;-53
2023/12/17 03:51:15;;;;;;;14.13;8.40;;;9.70;1.00;;;;;;5111217;28;21252;-53
2023/12/17 03:53:41;;;;;;;10.70;7.90;;;9.60;1.00;;;;;;5111221;28;20215;-53
2023/12/17 03:56:11;;;;;;;10.53;7.73;;;9.60;1.00;;;;;;5113312;28;20418;-53
2023/12/17 03:58:37;;;;;;;12.37;7.90;;;9.60;99.90;;;;;;5115996;28;20186;-52
2023/12/17 04:01:04;;;;;;;12.53;7.60;;;9.60;69.10;;;;;;5115544;28;20415;-53
2023/12/17 04:03:30;;;;;;;15.93;8.33;;;9.60;23.00;;;;;;5115656;28;20487;-53
2023/12/17 04:05:57;;;;;;;19.53;8.80;;;9.60;1.00;;;;;;5115068;28;20553;-53
2023/12/17 04:08:23;;;;;;;17.20;7.67;;;9.60;1.00;;;;;;5116131;28;20168;-53
2023/12/17 04:10:48;;;;;;;15.73;8.93;;;9.60;1.00;;;;;;5115446;28;20440;-52
2023/12/17 04:13:14;;;;;;;15.60;8.00;;;9.60;1.00;;;;;;5115222;28;20238;-52
2023/12/17 04:15:39;;;;;;;16.10;8.43;;;9.60;1.00;;;;;;5114601;28;20192;-53
2023/12/17 04:18:05;;;;;;;12.77;8.03;;;9.60;1.00;;;;;;5115552;28;20523;-53
2023/12/17 04:20:30;;;;;;;16.03;7.80;;;9.60;1.00;;;;;;5115655;28;20176;-52
2023/12/17 04:22:56;;;;;;;15.67;8.83;;;9.60;1.00;;;;;;5114776;28;20189;-53
2023/12/17 04:25:22;;;;;;;11.43;7.30;;;9.60;1.00;;;;;;5115549;28;20265;-53
2023/12/17 04:27:47;;;;;;;13.63;7.77;;;9.60;1.00;;;;;;5114671;28;20177;-53
2023/12/17 04:30:13;;;;;;;13.23;7.97;;;9.60;22.50;;;;;;5115686;28;20188;-53
2023/12/17 04:32:38;;;;;;;15.03;8.00;;;9.60;1.00;;;;;;5114520;28;20210;-53
2023/12/17 04:35:06;;;;;;;13.43;7.60;;;9.60;48.70;;;;;;5115381;28;20216;-53
2023/12/17 04:37:32;;;;;;;14.53;7.53;;;9.60;1.00;;;;;;5113487;28;20650;-53
2023/12/17 04:39:57;;;;;;;15.07;7.70;;;9.60;1.00;;;;;;5115350;28;20459;-53
2023/12/17 04:42:23;;;;;;;10.20;7.50;;;9.60;1.00;;;;;;5115497;28;20195;-53
2023/12/17 04:44:48;;;;;;;13.20;7.60;;;9.70;1.00;;;;;;5114622;28;20182;-53
2023/12/17 04:47:14;;;;;;;12.50;7.97;;;9.70;1.00;;;;;;5114357;28;20208;-53
2023/12/17 04:49:39;;;;;;;14.87;8.10;;;9.70;1.00;;;;;;5114692;28;20184;-53
2023/12/17 04:52:06;;;;;;;10.47;7.47;;;9.70;1.00;;;;;;5114437;28;20181;-53
2023/12/17 04:54:31;;;;;;;11.50;7.43;;;9.70;1.00;;;;;;5115121;28;20239;-52
2023/12/17 04:56:57;;;;;;;14.80;7.90;;;9.70;1.00;;;;;;5114224;28;20418;-53
2023/12/17 04:59:23;;;;;;;15.47;8.13;;;9.70;1.00;;;;;;5113426;28;20173;-53
2023/12/17 05:01:49;;;;;;;16.90;8.30;;;9.70;1.00;;;;;;5114984;28;20653;-53
2023/12/17 05:04:16;;;;;;;14.80;7.60;;;9.70;1.00;;;;;;5113656;28;20429;-53
2023/12/17 05:06:42;;;;;;;12.00;7.67;;;9.70;1.00;;;;;;5113670;28;20271;-53
2023/12/17 05:09:07;;;;;;;17.47;8.47;;;9.70;1.00;;;;;;5113067;28;20450;-53
2023/12/17 05:11:33;;;;;;;11.77;7.87;;;9.60;1.00;;;;;;5114460;28;20410;-53
2023/12/17 05:13:58;;;;;;;22.63;7.70;;;9.70;1.00;;;;;;5114061;28;20212;-53
2023/12/17 05:16:24;;;;;;;12.90;7.47;;;9.70;1.00;;;;;;5114896;28;20193;-53
2023/12/17 05:18:50;;;;;;;13.03;7.87;;;9.70;99.90;;;;;;5114244;28;20177;-53
2023/12/17 05:21:15;;;;;;;13.23;8.03;;;9.70;1.00;;;;;;5113494;28;20176;-53
2023/12/17 05:23:41;;;;;;;34.33;8.87;;;9.70;1.00;;;;;;5113702;28;20186;-53
2023/12/17 05:26:06;;;;;;;10.97;8.10;;;9.70;1.00;;;;;;5114606;28;20192;-52
2023/12/17 05:28:32;;;;;;;14.03;7.10;;;9.70;1.00;;;;;;5114087;28;20176;-52
2023/12/17 05:30:57;;;;;;;11.83;7.67;;;9.70;1.00;;;;;;5113736;28;20172;-53
2023/12/17 05:33:23;;;;;;;13.37;7.60;;;9.70;99.90;;;;;;5113434;28;20250;-53
2023/12/17 05:35:48;;;;;;;10.87;7.17;;;9.70;1.00;;;;;;5114285;28;20197;-53
2023/12/17 05:38:16;;;;;;;12.47;7.43;;;9.70;1.00;;;;;;5114365;28;20528;-53
2023/12/17 05:40:42;;;;;;;13.30;7.27;;;9.70;1.00;;;;;;5113077;28;20224;-53
2023/12/17 05:43:08;;;;;;;10.90;7.57;;;9.70;1.00;;;;;;5113129;28;20509;-53
2023/12/17 05:45:33;;;;;;;11.87;7.67;;;9.70;1.00;;;;;;5095942;28;20255;-53
2023/12/17 05:47:59;;;;;;;11.60;7.10;;;9.70;99.90;;;;;;5114052;28;20995;-53
2023/12/17 05:50:25;;;;;;;10.50;7.30;;;9.70;99.90;;;;;;5113106;28;20173;-53
2023/12/17 05:52:50;;;;;;;15.10;7.40;;;9.70;1.00;;;;;;5113342;28;20236;-53
2023/12/17 05:55:16;;;;;;;11.80;6.87;;;9.70;1.00;;;;;;5113464;28;20241;-52
2023/12/17 05:57:43;;;;;;;14.00;7.47;;;9.70;1.00;;;;;;5113196;28;20634;-52
2023/12/17 06:00:10;;;;;;;10.03;7.53;;;9.70;96.40;;;;;;5113471;28;20757;-53
2023/12/17 06:02:36;;;;;;;10.50;7.40;;;9.70;1.00;;;;;;5112639;28;20501;-53
2023/12/17 06:05:02;;;;;;;15.40;6.93;;;9.70;1.00;;;;;;5113670;28;20829;-53
2023/12/17 06:07:27;;;;;;;8.47;6.50;;;9.70;1.00;;;;;;5112577;28;20231;-53
2023/12/17 06:09:53;;;;;;;13.20;7.23;;;9.70;1.00;;;;;;5113567;28;20831;-53
2023/12/17 06:12:19;;;;;;;9.40;6.77;;;9.80;1.00;;;;;;5113351;28;20180;-53
2023/12/17 06:14:45;;;;;;;11.00;6.83;;;9.80;1.00;;;;;;5112787;28;20481;-53
2023/12/17 06:17:11;;;;;;;10.20;6.73;;;9.70;99.90;;;;;;5113041;28;20173;-53
2023/12/17 06:19:37;;;;;;;12.43;6.17;;;9.70;99.90;;;;;;5112775;28;20176;-53
2023/12/17 06:22:03;;;;;;;14.10;6.60;;;9.70;99.90;;;;;;5112781;28;20437;-52
2023/12/17 06:24:29;;;;;;;11.20;6.53;;;9.70;99.90;;;;;;5113422;28;20546;-53
2023/12/17 06:26:55;;;;;;;9.43;5.53;;;9.70;99.90;;;;;;5112326;28;20457;-52
2023/12/17 06:29:21;;;;;;;12.17;6.00;;;9.70;99.90;;;;;;5113139;28;20190;-53
2023/12/17 06:31:46;;;;;;;15.13;5.80;;;9.70;99.90;;;;;;5112844;28;20415;-52
2023/12/17 06:34:13;;;;;;;14.07;6.00;;;9.80;99.90;;;;;;5111963;28;20223;-53
2023/12/17 06:36:38;;;;;;;10.43;6.27;;;9.80;99.90;;;;;;5112053;28;20199;-53
2023/12/17 06:39:09;;;;;;;9.30;5.60;;;9.80;57.90;;;;;;5112878;28;20407;-53
2023/12/17 06:41:44;;;;;;;9.57;6.23;;;9.80;90.40;;;;;;5112590;28;20535;-53
2023/12/17 06:44:10;;;;;;;8.47;6.10;;;9.80;99.90;;;;;;5112454;28;20401;-53
2023/12/17 06:46:35;;;;;;;9.80;6.60;;;9.70;99.90;;;;;;5112061;28;20456;-53
2023/12/17 06:49:01;;;;;;;13.67;5.90;;;9.70;99.90;;;;;;5112677;28;20642;-53
2023/12/17 06:51:27;;;;;;;10.30;5.40;;;9.70;99.90;;;;;;5112009;28;20295;-53
2023/12/17 06:53:52;;;;;;;8.03;5.80;;;9.70;99.90;;;;;;5112418;28;20221;-53
2023/12/17 06:56:19;;;;;;;10.73;6.03;;;9.80;99.90;;;;;;5112331;28;20188;-52
2023/12/17 06:58:44;;;;;;;10.20;5.93;;;9.70;89.80;;;;;;5112358;28;20410;-53
2023/12/17 07:01:11;;;;;;;10.07;6.43;;;9.70;99.90;;;;;;5111933;28;20747;-53
2023/12/17 07:03:36;;;;;;;17.87;6.03;;;9.70;99.90;;;;;;5112421;28;20550;-52
2023/12/17 07:06:02;;;;;;;10.50;5.73;;;9.80;65.60;;;;;;5111032;28;20466;-52
2023/12/17 07:08:28;;;;;;;12.20;5.97;;;9.80;1.00;;;;;;5111837;28;20180;-52
2023/12/17 07:10:53;;;;;;;10.70;6.43;;;9.80;99.90;;;;;;5111913;28;20184;-52
2023/12/17 07:13:19;;;;;;;8.07;5.67;;;9.80;99.90;;;;;;5112268;28;20208;-52
2023/12/17 07:15:45;;;;;;;9.23;6.23;;;9.80;99.90;;;;;;5112163;28;20181;-52
2023/12/17 07:18:11;;;;;;;12.30;5.50;;;9.80;45.40;;;;;;5112252;28;20185;-52
2023/12/17 07:20:37;;;;;;;17.23;6.53;;;9.80;1.00;;;;;;5111390;28;20474;-52
2023/12/17 07:23:02;;;;;;;13.23;6.50;;;9.80;1.00;;;;;;5111474;28;20551;-51
2023/12/17 07:25:28;;;;;;;14.10;6.83;;;9.80;99.90;;;;;;5112274;28;20181;-52
2023/12/17 07:27:54;;;;;;;10.10;6.27;;;9.80;96.90;;;;;;5111750;28;20190;-52
2023/12/17 07:30:20;;;;;;;9.73;6.70;;;9.80;1.00;;;;;;5111565;28;20203;-52
2023/12/17 07:32:46;;;;;;;8.07;6.40;;;9.80;7.00;;;;;;5111506;28;20951;-52
2023/12/17 07:35:12;;;;;;;10.50;6.80;;;9.80;7.40;;;;;;5111247;28;20270;-52
2023/12/17 07:37:37;;;;;;;15.67;6.60;;;9.80;1.00;;;;;;5112023;28;20912;-53
2023/12/17 07:40:03;;;;;;;9.47;6.30;;;9.80;1.00;;;;;;5112410;28;20176;-52
2023/12/17 07:42:28;;;;;;;11.03;6.90;;;9.70;99.90;;;;;;5111869;28;20179;-52
2023/12/17 07:44:54;;;;;;;8.93;6.87;;;9.80;99.90;;;;;;5111860;28;20172;-52
2023/12/17 07:47:20;;;;;;;8.97;6.30;;;9.80;99.90;;;;;;5111103;28;20188;-52
2023/12/17 07:49:46;;;;;;;14.23;7.03;;;9.80;1.00;;;;;;5111526;28;20191;-52
2023/12/17 07:52:11;;;;;;;13.70;6.90;;;9.80;1.00;;;;;;5111950;28;20411;-52
2023/12/17 07:54:37;;;;;;;9.80;7.33;;;9.80;1.00;;;;;;5111967;28;20206;-52
2023/12/17 07:57:03;;;;;;;10.30;6.77;;;9.80;1.00;;;;;;5110754;28;20622;-52
2023/12/17 07:59:28;;;;;;;10.67;6.60;;;9.80;1.00;;;;;;5110326;28;20276;-52
2023/12/17 08:01:54;;;;;;;13.67;7.07;;;9.90;99.90;;;;;;5111953;28;20180;-52
2023/12/17 08:04:19;;;;;;;9.47;6.90;;;9.90;1.00;;;;;;5112055;28;20184;-52
2023/12/17 08:06:45;;;;;;;13.70;6.90;;;9.90;1.00;;;;;;5111225;28;20232;-53
2023/12/17 08:09:11;;;;;;;11.60;7.90;;;9.90;1.00;;;;;;5110450;28;20797;-52
2023/12/17 08:11:37;;;;;;;10.97;7.77;;;9.90;1.00;;;;;;5111854;28;20520;-52
2023/12/17 08:14:03;;;;;;;13.73;9.30;;;9.90;1.00;;;;;;5111541;28;20722;-52
2023/12/17 08:16:29;;;;;;;19.10;8.30;;;9.90;1.00;;;;;;5112109;28;20411;-51
2023/12/17 08:18:55;;;;;;;15.63;8.37;;;9.90;1.00;;;;;;5110310;28;20398;-52
2023/12/17 08:21:21;;;;;;;17.40;9.20;;;9.90;1.00;;;;;;5111162;28;20555;-52
2023/12/17 08:23:46;;;;;;;12.97;8.70;;;9.90;1.00;;;;;;5111237;28;20192;-52
2023/12/17 08:26:12;;;;;;;21.47;9.27;;;9.90;1.00;;;;;;5111449;28;20181;-52
2023/12/17 08:28:37;;;;;;;12.53;9.40;;;9.90;1.00;;;;;;5111268;28;20181;-52
2023/12/17 08:31:08;;;;;;;13.17;10.03;;;10.00;99.90;;;;;;5110695;28;20264;-51
2023/12/17 08:33:34;;;;;;;20.23;10.30;;;10.00;4.50;;;;;;5110597;28;20214;-52
2023/12/17 08:35:59;;;;;;;13.40;8.83;;;10.00;1.00;;;;;;5111198;28;20504;-52
2023/12/17 08:38:25;;;;;;;13.40;10.07;;;10.00;1.00;;;;;;5111081;28;20928;-51
2023/12/17 08:40:50;;;;;;;18.63;9.40;;;10.00;1.00;;;;;;5111688;28;20180;-52
2023/12/17 08:43:16;;;;;;;15.30;9.67;;;10.00;1.00;;;;;;5113697;28;20260;-52
2023/12/17 08:45:42;;;;;;;13.47;9.60;;;10.00;1.00;;;;;;5114967;28;20618;-52
2023/12/17 08:48:07;;;;;;;12.53;10.23;;;10.00;1.00;;;;;;5114458;28;20229;-51
2023/12/17 08:50:33;;;;;;;14.77;9.43;;;10.10;1.00;;;;;;5114331;28;20189;-52
2023/12/17 08:52:58;;;;;;;13.83;9.80;;;10.10;99.90;;;;;;5114865;28;20208;-52
2023/12/17 08:55:24;;;;;;;17.33;9.43;;;10.10;99.90;;;;;;5114153;28;20200;-52
2023/12/17 08:57:50;;;;;;;13.43;9.10;;;10.10;99.90;;;;;;5114639;28;20184;-52
2023/12/17 09:00:17;;;;;;;14.33;9.47;;;10.10;99.90;;;;;;5115094;28;20702;-52
2023/12/17 09:02:42;;;;;;;15.37;8.80;;;10.10;60.90;;;;;;5113515;28;20267;-52
2023/12/17 09:05:08;;;;;;;12.60;8.50;;;10.10;99.90;;;;;;5113661;28;20502;-51
2023/12/17 09:07:34;;;;;;;12.23;9.00;;;10.10;1.00;;;;;;5114008;28;20228;-52
2023/12/17 09:10:00;;;;;;;12.17;9.50;;;10.10;1.00;;;;;;5114537;28;20921;-51
2023/12/17 09:12:26;;;;;;;13.73;8.10;;;10.10;99.90;;;;;;5114671;28;20180;-51
2023/12/17 09:14:52;;;;;;;14.70;9.23;;;10.10;99.90;;;;;;5114317;28;20515;-51
2023/12/17 09:17:17;;;;;;;16.87;8.97;;;10.10;99.90;;;;;;5112965;28;20274;-51
2023/12/17 09:19:44;;;;;;;12.93;8.43;;;10.10;99.90;;;;;;5114498;28;20209;-52
2023/12/17 09:22:09;;;;;;;14.17;8.60;;;10.10;99.90;;;;;;5114175;28;20177;-52
2023/12/17 09:24:35;;;;;;;13.47;9.30;;;10.10;1.00;;;;;;5114179;28;20411;-52
2023/12/17 09:27:02;;;;;;;17.17;9.13;;;10.10;1.00;;;;;;5112860;28;20422;-52
2023/12/17 09:29:28;;;;;;;15.30;8.80;;;10.10;1.00;;;;;;5114666;28;20188;-52
2023/12/17 09:31:54;;;;;;;16.43;10.57;;;10.10;99.90;;;;;;5112958;28;20403;-52
2023/12/17 09:34:19;;;;;;;16.33;9.27;;;10.20;96.20;;;;;;5114780;28;20208;-52
2023/12/17 09:36:45;;;;;;;14.17;10.30;;;10.20;1.00;;;;;;5113915;28;20215;-52
2023/12/17 09:39:11;;;;;;;17.97;10.27;;;10.20;83.70;;;;;;5113337;28;20180;-52
2023/12/17 09:41:36;;;;;;;16.73;10.33;;;10.20;1.00;;;;;;5113131;28;20541;-51
2023/12/17 09:44:05;;;;;;;11.80;8.97;;;10.10;70.40;;;;;;5113733;28;20283;-52
2023/12/17 09:46:31;;;;;;;19.00;9.57;;;10.10;45.10;;;;;;5113105;28;20266;-52
2023/12/17 09:48:58;;;;;;;15.90;10.30;;;10.10;1.00;;;;;;5113686;28;20501;-52
2023/12/17 09:51:24;;;;;;;16.73;10.27;;;10.10;1.00;;;;;;5113467;28;20631;-52
2023/12/17 09:53:50;;;;;;;11.60;9.30;;;10.10;1.00;;;;;;5112309;28;20465;-52
2023/12/17 09:56:16;;;;;;;13.50;10.10;;;10.10;47.90;;;;;;5113369;28;20494;-52
2023/12/17 09:58:41;;;;;;;13.87;9.90;;;10.10;1.00;;;;;;5113172;28;20177;-52
2023/12/17 10:01:07;;;;;;;17.67;10.10;;;10.20;1.00;;;;;;5112861;28;20177;-52
2023/12/17 10:03:33;;;;;;;18.13;10.27;;;10.10;1.00;;;;;;5113363;28;20180;-52
2023/12/17 10:05:59;;;;;;;19.67;10.53;;;10.20;1.00;;;;;;5113271;28;20592;-52
2023/12/17 10:08:25;;;;;;;11.70;9.13;;;10.10;1.00;;;;;;5113058;28;20413;-52
2023/12/17 10:10:50;;;;;;;16.23;10.27;;;10.20;1.00;;;;;;5112768;28;20419;-52
2023/12/17 10:13:18;;;;;;;16.63;10.50;;;10.20;1.00;;;;;;5113083;28;20208;-53
2023/12/17 10:15:48;;;;;;;14.03;10.73;;;10.20;1.00;;;;;;5113237;28;20245;-51
2023/12/17 10:18:14;;;;;;;14.90;9.80;;;10.20;1.00;;;;;;5112517;28;20429;-51
2023/12/17 10:20:39;;;;;;;15.30;10.73;;;10.20;99.90;;;;;;5112268;28;20405;-50
2023/12/17 10:23:05;;;;;;;14.13;10.07;;;10.30;99.90;;;;;;5113621;28;20421;-51
2023/12/17 10:25:31;;;;;;;14.03;10.40;;;10.20;99.90;;;;;;5112666;28;20691;-51
2023/12/17 10:27:58;;;;;;;11.77;10.13;;;10.30;99.90;;;;;;5112237;28;20182;-51
2023/12/17 10:30:29;;;;;;;13.23;10.80;;;10.30;99.90;;;;;;5111708;28;20190;-52
2023/12/17 10:32:56;;;;;;;14.10;9.87;;;10.20;99.90;;;;;;5113253;28;20458;-52
2023/12/17 10:35:25;;;;;;;15.70;9.97;;;10.20;99.90;;;;;;5112959;28;20417;-52
2023/12/17 10:37:57;;;;;;;15.27;10.57;;;10.30;99.90;;;;;;5113024;28;20407;-51
2023/12/17 10:40:27;;;;;;;11.90;10.30;;;10.30;99.90;;;;;;5112160;28;20414;-52
2023/12/17 10:42:55;;;;;;;14.17;9.90;;;10.30;99.90;;;;;;5111676;28;20472;-52
2023/12/17 10:45:22;;;;;;;15.03;10.17;;;10.30;1.00;;;;;;5112748;28;20920;-52
2023/12/17 10:47:52;;;;;;;15.00;10.97;;;10.30;1.00;;;;;;5112691;28;20411;-52
2023/12/17 10:50:18;;;;;;;16.10;12.43;;;10.20;99.90;;;;;;5111795;28;20407;-51
2023/12/17 10:52:47;;;;;;;15.00;12.00;;;10.20;99.90;;;;;;5111998;28;20429;-52
2023/12/17 10:55:14;;;;;;;16.07;12.13;;;10.20;1.00;;;;;;5112149;28;20550;-52
2023/12/17 10:57:44;;;;;;;16.17;12.20;;;10.20;99.90;;;;;;5111960;28;20514;-52
2023/12/17 11:00:13;;;;;;;16.53;14.00;;;10.20;99.90;;;;;;5112485;28;20744;-52
2023/12/17 11:02:39;;;;;;;18.33;13.77;;;10.20;99.90;;;;;;5112618;28;20422;-52
2023/12/17 11:05:05;;;;;;;23.40;14.87;;;10.20;99.90;;;;;;5111184;28;20548;-51
2023/12/17 11:07:31;;;;;;;17.07;14.83;;;10.30;36.40;;;;;;5111450;28;20462;-51
2023/12/17 11:09:58;;;;;;;17.70;14.10;;;10.30;1.00;;;;;;5111776;28;20411;-51
2023/12/17 11:12:25;;;;;;;17.07;14.57;;;10.30;1.00;;;;;;5112238;28;20410;-52
2023/12/17 11:14:51;;;;;;;19.87;15.33;;;10.40;99.90;;;;;;5112717;28;20488;-51
2023/12/17 11:17:17;;;;;;;26.67;16.80;;;10.40;1.00;;;;;;5111275;28;20442;-51
2023/12/17 11:19:59;;;;;;;24.20;18.80;;;10.60;99.90;;;;;;5111963;28;20192;-52
2023/12/17 11:22:25;;;;;;;29.20;20.80;;;10.50;99.90;;;;;;5111932;28;20407;-52
2023/12/17 11:24:54;;;;;;;32.57;22.00;;;10.50;1.00;;;;;;5112135;28;20855;-51
2023/12/17 11:27:24;;;;;;;31.40;23.73;;;10.60;99.90;;;;;;5112267;28;20484;-52
2023/12/17 11:29:50;;;;;;;31.90;23.30;;;10.60;1.00;;;;;;5111638;28;20775;-52
2023/12/17 11:32:20;;;;;;;33.63;23.00;;;10.50;99.90;;;;;;5111604;28;20450;-52
2023/12/17 11:34:50;;;;;;;29.97;22.27;;;10.50;1.00;;;;;;5112025;28;20552;-51
2023/12/17 11:37:20;;;;;;;31.03;22.30;;;10.60;1.00;;;;;;5111763;28;20820;-51
2023/12/17 11:39:47;;;;;;;27.27;20.60;;;10.50;1.00;;;;;;5112023;28;20422;-51
2023/12/17 11:42:14;;;;;;;29.47;20.83;;;10.60;1.00;;;;;;5110959;28;20421;-51
2023/12/17 11:44:49;;;;;;;28.37;20.03;;;10.60;99.90;;;;;;5111708;28;20480;-51
2023/12/17 11:47:15;;;;;;;24.30;17.93;;;10.60;99.90;;;;;;5110988;28;20421;-52
2023/12/17 11:49:42;;;;;;;23.00;17.40;;;10.50;1.00;;;;;;5112160;28;20407;-52
2023/12/17 11:52:13;;;;;;;22.80;16.13;;;10.60;1.00;;;;;;5111486;28;20895;-50
2023/12/17 11:54:41;;;;;;;19.40;14.20;;;10.60;1.00;;;;;;5112008;28;20457;-50
2023/12/17 11:57:23;;;;;;;19.73;13.13;;;10.70;99.90;;;;;;5110875;28;20942;-51
2023/12/17 11:59:50;;;;;;;17.20;12.17;;;10.80;99.90;;;;;;5091165;28;20408;-51
2023/12/17 12:02:20;;;;;;;15.33;11.73;;;11.00;60.40;;;;;;5091895;28;20464;-51
2023/12/17 12:04:46;;;;;;;15.10;9.83;;;11.00;1.00;;;;;;5124858;28;20406;-51
2023/12/17 12:07:17;;;;;;;12.70;9.17;;;10.90;1.00;;;;;;5115082;28;21057;-50
2023/12/17 12:09:46;;;;;;;14.20;9.90;;;10.70;99.90;;;;;;5111255;28;21009;-52
2023/12/17 12:12:33;;;;;;;16.13;8.70;;;10.70;99.90;;;;;;5110927;28;21087;-51
2023/12/17 12:14:58;;;;;;;18.30;9.20;;;10.60;1.00;;;;;;5112142;28;20449;-52
2023/12/17 12:17:41;;;;;;;11.13;8.33;;;10.50;12.70;;;;;;5112928;28;20509;-52
2023/12/17 12:20:14;;;;;;;16.17;9.67;;;10.40;99.90;;;;;;5114531;28;20241;-51
2023/12/17 12:22:45;;;;;;;13.47;8.53;;;10.40;99.90;;;;;;5115073;28;20460;-51
2023/12/17 12:25:17;;;;;;;13.53;9.00;;;10.40;99.90;;;;;;5115979;28;20417;-51
2023/12/17 12:27:44;;;;;;;15.10;8.80;;;10.60;99.90;;;;;;5114646;28;20453;-51
2023/12/17 12:30:28;;;;;;;13.17;8.70;;;10.70;1.00;;;;;;5114938;28;20942;-51
2023/12/17 12:32:55;;;;;;;13.03;8.13;;;10.80;1.00;;;;;;5114927;28;20402;-51
2023/12/17 12:35:27;;;;;;;11.50;8.40;;;10.80;99.90;;;;;;5113919;28;20959;-52
2023/12/17 12:37:53;;;;;;;13.80;8.70;;;10.70;1.00;;;;;;5115214;28;20479;-51
2023/12/17 12:40:30;;;;;;;14.30;9.10;;;10.60;1.00;;;;;;5114262;28;20786;-51